createdAt,value
2019-03-05T00:01:55.893Z,7.70
2019-03-05T00:04:26.986Z,7.70
2019-03-05T00:06:58.783Z,7.70
2019-03-05T00:09:29.537Z,7.60
2019-03-05T00:12:00.261Z,7.60
2019-03-05T00:14:31.334Z,7.50
2019-03-05T00:17:02.176Z,7.60
2019-03-05T00:19:33.859Z,7.60
2019-03-05T00:22:05.184Z,7.60
2019-03-05T00:25:01.125Z,7.60
2019-03-05T00:27:35.578Z,7.50
2019-03-05T00:30:22.443Z,7.50
2019-03-05T00:32:57.505Z,7.50
2019-03-05T00:35:38.493Z,7.50
2019-03-05T00:38:15.206Z,7.50
2019-03-05T00:40:57.970Z,7.50
2019-03-05T00:43:55.077Z,7.40
2019-03-05T00:47:15.904Z,7.50
2019-03-05T00:50:08.886Z,7.40
2019-03-05T00:53:01.240Z,7.40
2019-03-05T00:56:15.642Z,7.40
2019-03-05T00:58:57.859Z,7.40
2019-03-05T01:01:58.628Z,7.40
2019-03-05T01:05:01.285Z,7.50
2019-03-05T01:07:33.142Z,7.50
2019-03-05T01:10:04.640Z,7.60
2019-03-05T01:12:35.641Z,7.60
2019-03-05T01:15:06.874Z,7.60
2019-03-05T01:17:37.564Z,7.50
2019-03-05T01:20:09.932Z,7.60
2019-03-05T01:22:41.022Z,7.60
2019-03-05T01:25:25.989Z,7.60
2019-03-05T01:27:56.881Z,7.50
2019-03-05T01:30:32.841Z,7.50
2019-03-05T01:33:08.893Z,7.40
2019-03-05T01:35:48.553Z,7.40
2019-03-05T01:38:19.644Z,7.40
2019-03-05T01:40:54.484Z,7.30
2019-03-05T01:43:25.287Z,7.30
2019-03-05T01:45:55.985Z,7.20
2019-03-05T01:48:26.676Z,7.10
2019-03-05T01:50:57.669Z,7.00
2019-03-05T01:53:28.454Z,6.90
2019-03-05T01:55:59.370Z,6.80
2019-03-05T01:58:30.420Z,6.70
2019-03-05T02:01:01.474Z,6.60
2019-03-05T02:03:32.513Z,6.60
2019-03-05T02:06:03.719Z,6.50
2019-03-05T02:08:34.900Z,6.50
2019-03-05T02:11:06.145Z,6.40
2019-03-05T02:13:37.285Z,6.40
2019-03-05T02:16:08.132Z,6.30
2019-03-05T02:18:38.922Z,6.40
2019-03-05T02:21:09.628Z,6.30
2019-03-05T02:24:17.638Z,6.30
2019-03-05T02:27:05.845Z,6.30
2019-03-05T02:29:45.342Z,6.30
2019-03-05T02:32:46.715Z,6.20
2019-03-05T02:35:54.856Z,6.20
2019-03-05T02:39:05.080Z,6.30
2019-03-05T02:41:45.628Z,6.30
2019-03-05T02:44:35.622Z,6.20
2019-03-05T02:47:50.374Z,6.30
2019-03-05T02:51:02.766Z,6.40
2019-03-05T02:54:16.824Z,6.40
2019-03-05T02:56:58.528Z,6.40
2019-03-05T02:59:29.595Z,6.50
2019-03-05T03:02:19.213Z,6.60
2019-03-05T03:04:52.434Z,6.60
2019-03-05T03:07:23.215Z,6.60
2019-03-05T03:10:14.728Z,6.70
2019-03-05T03:12:45.882Z,6.70
2019-03-05T03:15:17.965Z,6.80
2019-03-05T03:17:49.706Z,6.80
2019-03-05T03:20:21.573Z,6.80
2019-03-05T03:22:52.420Z,6.90
2019-03-05T03:25:25.326Z,6.80
2019-03-05T03:27:56.114Z,6.80
2019-03-05T03:30:28.182Z,6.80
2019-03-05T03:32:59.084Z,6.80
2019-03-05T03:35:29.830Z,6.80
2019-03-05T03:38:00.517Z,6.70
2019-03-05T03:40:31.646Z,6.70
2019-03-05T03:43:02.757Z,6.70
2019-03-05T03:45:33.544Z,6.60
2019-03-05T03:48:04.399Z,6.60
2019-03-05T03:50:35.101Z,6.60
2019-03-05T03:53:06.515Z,6.60
2019-03-05T03:55:37.757Z,6.60
2019-03-05T03:58:08.692Z,6.60
2019-03-05T04:00:39.730Z,6.50
2019-03-05T04:03:10.805Z,6.50
2019-03-05T04:05:41.547Z,6.40
2019-03-05T04:08:12.800Z,6.40
2019-03-05T04:10:44.001Z,6.30
2019-03-05T04:13:15.647Z,6.30
2019-03-05T04:15:46.498Z,6.20
2019-03-05T04:18:17.359Z,6.20
2019-03-05T04:20:51.387Z,6.20
2019-03-05T04:23:22.094Z,6.20
2019-03-05T04:25:53.101Z,6.10
2019-03-05T04:28:23.876Z,6.10
2019-03-05T04:30:54.579Z,6.10
2019-03-05T04:33:25.548Z,6.10
2019-03-05T04:35:56.298Z,6.10
2019-03-05T04:38:27.000Z,6.10
2019-03-05T04:40:58.052Z,6.10
2019-03-05T04:43:28.833Z,6.20
2019-03-05T04:46:22.121Z,6.20
2019-03-05T04:49:13.266Z,6.30
2019-03-05T04:52:03.146Z,6.40
2019-03-05T04:54:34.121Z,6.40
2019-03-05T04:57:04.938Z,6.40
2019-03-05T04:59:35.696Z,6.40
2019-03-05T05:02:06.417Z,6.50
2019-03-05T05:04:37.442Z,6.50
2019-03-05T05:07:08.318Z,6.60
2019-03-05T05:09:39.185Z,6.60
2019-03-05T05:12:09.960Z,6.70
2019-03-05T05:14:40.937Z,6.80
2019-03-05T05:17:11.648Z,6.80
2019-03-05T05:19:42.341Z,6.90
2019-03-05T05:22:13.039Z,6.90
2019-03-05T05:24:44.262Z,6.90
2019-03-05T05:27:15.068Z,6.90
2019-03-05T05:29:46.069Z,6.90
2019-03-05T05:32:16.771Z,6.90
2019-03-05T05:34:48.169Z,6.90
2019-03-05T05:37:20.122Z,6.90
2019-03-05T05:40:22.133Z,7.00
2019-03-05T05:42:53.078Z,7.00
2019-03-05T05:45:25.437Z,7.00
2019-03-05T05:47:56.137Z,6.90
2019-03-05T05:50:27.144Z,6.90
2019-03-05T05:52:57.833Z,6.80
2019-03-05T05:55:28.864Z,6.80
2019-03-05T05:57:59.572Z,6.70
2019-03-05T06:00:32.039Z,6.70
2019-03-05T06:03:03.122Z,6.60
2019-03-05T06:05:34.119Z,6.60
2019-03-05T06:08:04.999Z,6.50
2019-03-05T06:10:35.999Z,6.40
2019-03-05T06:13:07.354Z,6.50
2019-03-05T06:15:38.206Z,6.40
2019-03-05T06:18:08.888Z,6.50
2019-03-05T06:20:42.450Z,6.40
2019-03-05T06:23:12.145Z,6.40
2019-03-05T06:25:42.942Z,6.30
2019-03-05T06:28:13.792Z,6.30
2019-03-05T06:30:44.605Z,6.20
2019-03-05T06:33:15.339Z,6.20
2019-03-05T06:35:46.132Z,6.20
2019-03-05T06:38:17.168Z,6.20
2019-03-05T06:40:47.866Z,6.10
2019-03-05T06:43:18.593Z,6.10
2019-03-05T06:45:49.401Z,6.10
2019-03-05T06:48:20.126Z,6.00
2019-03-05T06:50:50.817Z,6.00
2019-03-05T06:53:21.561Z,6.00
2019-03-05T06:55:52.468Z,6.00
2019-03-05T06:58:23.157Z,5.90
2019-03-05T07:00:53.959Z,6.00
2019-03-05T07:03:24.648Z,5.90
2019-03-05T07:06:32.806Z,5.90
2019-03-05T07:09:09.297Z,5.90
2019-03-05T07:12:00.366Z,5.90
2019-03-05T07:15:08.400Z,5.90
2019-03-05T07:17:43.017Z,5.90
2019-03-05T07:21:22.370Z,5.90
2019-03-05T07:24:29.392Z,5.90
2019-03-05T07:27:00.689Z,5.90
2019-03-05T07:29:31.423Z,5.90
2019-03-05T07:32:02.287Z,5.80
2019-03-05T07:34:34.762Z,5.80
2019-03-05T07:37:06.747Z,5.90
2019-03-05T07:39:37.913Z,5.90
2019-03-05T07:42:08.700Z,5.90
2019-03-05T07:44:39.751Z,5.90
2019-03-05T07:47:10.514Z,5.90
2019-03-05T07:49:44.098Z,6.00
2019-03-05T07:52:13.679Z,5.90
2019-03-05T07:54:44.400Z,5.80
2019-03-05T07:57:15.308Z,5.90
2019-03-05T07:59:46.574Z,5.90
2019-03-05T08:02:17.400Z,5.90
2019-03-05T08:04:48.170Z,5.90
2019-03-05T08:07:18.902Z,6.00
2019-03-05T08:09:50.118Z,6.20
2019-03-05T08:12:46.209Z,6.30
2019-03-05T08:15:22.517Z,6.40
2019-03-05T08:17:53.271Z,6.50
2019-03-05T08:20:23.995Z,6.70
2019-03-05T08:22:54.817Z,6.80
2019-03-05T08:25:25.526Z,6.80
2019-03-05T08:27:56.240Z,6.80
2019-03-05T08:30:27.321Z,6.90
2019-03-05T08:32:58.042Z,7.00
2019-03-05T08:35:28.753Z,7.00
2019-03-05T08:37:59.560Z,7.00
2019-03-05T08:40:31.347Z,7.00
2019-03-05T08:43:02.488Z,6.90
2019-03-05T08:45:33.172Z,7.00
2019-03-05T08:48:03.953Z,7.00
2019-03-05T08:50:34.661Z,7.00
2019-03-05T08:53:05.848Z,6.90
2019-03-05T08:55:36.704Z,7.00
2019-03-05T08:58:07.493Z,7.00
2019-03-05T09:00:38.193Z,7.00
2019-03-05T09:03:08.896Z,7.00
2019-03-05T09:05:39.667Z,7.10
2019-03-05T09:08:11.428Z,7.10
2019-03-05T09:10:42.514Z,7.10
2019-03-05T09:13:14.185Z,7.10
2019-03-05T09:15:45.322Z,7.20
2019-03-05T09:18:16.207Z,7.20
2019-03-05T09:20:47.758Z,7.20
2019-03-05T09:23:18.465Z,7.20
2019-03-05T09:25:49.157Z,7.20
2019-03-05T09:28:21.227Z,7.30
2019-03-05T09:30:51.968Z,7.30
2019-03-05T09:33:22.756Z,7.40
2019-03-05T09:35:53.469Z,7.60
2019-03-05T09:38:25.159Z,7.70
2019-03-05T09:40:57.642Z,7.90
2019-03-05T09:43:29.121Z,8.00
2019-03-05T09:45:59.901Z,8.20
2019-03-05T09:48:30.876Z,8.40
2019-03-05T09:51:01.646Z,8.50
2019-03-05T09:53:32.444Z,8.50
2019-03-05T09:56:05.976Z,8.60
2019-03-05T09:58:37.697Z,8.70
2019-03-05T10:01:08.501Z,8.70
2019-03-05T10:03:39.206Z,8.80
2019-03-05T10:06:10.409Z,9.00
2019-03-05T10:08:41.593Z,9.20
2019-03-05T10:11:12.441Z,9.40
2019-03-05T10:13:43.229Z,9.50
2019-03-05T10:16:14.024Z,9.50
2019-03-05T10:18:45.044Z,9.50
2019-03-05T10:21:16.919Z,9.60
2019-03-05T10:23:48.244Z,9.70
2019-03-05T10:26:18.975Z,9.90
2019-03-05T10:28:49.722Z,10.40
2019-03-05T10:31:20.443Z,10.70
2019-03-05T10:33:51.503Z,10.90
2019-03-05T10:36:22.605Z,11.10
2019-03-05T10:38:57.157Z,11.30
2019-03-05T10:41:26.539Z,11.40
2019-03-05T10:43:57.274Z,11.90
2019-03-05T10:46:28.372Z,13.10
2019-03-05T10:48:59.477Z,13.60
2019-03-05T10:51:31.443Z,13.70
2019-03-05T10:54:06.861Z,14.20
2019-03-05T10:56:38.101Z,15.00
2019-03-05T10:59:09.155Z,15.70
2019-03-05T11:01:41.149Z,16.10
2019-03-05T11:04:11.956Z,16.30
2019-03-05T11:06:43.022Z,16.30
2019-03-05T11:09:16.502Z,16.30
2019-03-05T11:11:47.273Z,16.30
2019-03-05T11:14:18.258Z,16.10
2019-03-05T11:16:50.165Z,15.40
2019-03-05T11:19:21.079Z,14.90
2019-03-05T11:21:51.978Z,14.40
2019-03-05T11:24:23.344Z,14.00
2019-03-05T11:26:54.138Z,13.60
2019-03-05T11:29:25.109Z,13.20
2019-03-05T11:31:55.886Z,13.00
2019-03-05T11:34:26.797Z,12.80
2019-03-05T11:36:57.611Z,12.60
2019-03-05T11:39:28.890Z,12.30
2019-03-05T11:41:59.922Z,12.00
2019-03-05T11:44:30.661Z,11.80
2019-03-05T11:47:01.521Z,11.70
2019-03-05T11:49:32.306Z,11.60
2019-03-05T11:52:03.011Z,11.50
2019-03-05T11:54:33.716Z,11.40
2019-03-05T11:57:04.497Z,11.30
2019-03-05T11:59:35.221Z,11.40
2019-03-05T12:02:06.197Z,11.60
2019-03-05T12:04:36.921Z,11.70
2019-03-05T12:07:07.657Z,12.00
2019-03-05T12:09:38.380Z,12.10
2019-03-05T12:12:09.101Z,12.10
2019-03-05T12:14:41.123Z,12.20
2019-03-05T12:17:11.825Z,12.20
2019-03-05T12:19:44.332Z,12.20
2019-03-05T12:22:15.442Z,12.00
2019-03-05T12:24:46.163Z,11.80
2019-03-05T12:27:16.933Z,11.70
2019-03-05T12:29:47.786Z,11.80
2019-03-05T12:32:18.500Z,11.90
2019-03-05T12:34:49.536Z,11.90
2019-03-05T12:37:20.594Z,12.00
2019-03-05T12:39:51.310Z,12.10
2019-03-05T12:42:22.544Z,12.60
2019-03-05T12:44:53.648Z,12.90
2019-03-05T12:47:24.353Z,13.50
2019-03-05T12:49:55.175Z,13.80
2019-03-05T12:52:25.889Z,13.70
2019-03-05T12:54:56.609Z,13.50
2019-03-05T12:57:27.381Z,13.70
2019-03-05T12:59:58.487Z,13.90
2019-03-05T13:02:29.221Z,14.20
2019-03-05T13:04:59.973Z,14.40
2019-03-05T13:07:30.702Z,14.50
2019-03-05T13:10:02.575Z,14.50
2019-03-05T13:12:35.997Z,14.60
2019-03-05T13:15:09.250Z,14.90
2019-03-05T13:17:40.705Z,15.00
2019-03-05T13:20:13.863Z,15.00
2019-03-05T13:22:44.976Z,14.80
2019-03-05T13:25:16.742Z,14.70
2019-03-05T13:27:48.508Z,14.60
2019-03-05T13:30:22.028Z,14.40
2019-03-05T13:32:54.108Z,14.20
2019-03-05T13:35:30.263Z,14.10
2019-03-05T13:37:58.754Z,13.90
2019-03-05T13:40:33.728Z,13.70
2019-03-05T13:43:02.493Z,13.40
2019-03-05T13:45:33.649Z,13.20
2019-03-05T13:48:19.809Z,13.00
2019-03-05T13:51:10.534Z,12.70
2019-03-05T13:54:10.705Z,12.40
2019-03-05T13:56:54.369Z,12.10
2019-03-05T13:59:45.153Z,12.10
2019-03-05T14:02:23.706Z,12.00
2019-03-05T14:05:22.786Z,11.90
2019-03-05T14:08:21.009Z,11.80
2019-03-05T14:10:51.743Z,11.60
2019-03-05T14:13:23.676Z,11.50
2019-03-05T14:15:54.841Z,11.30
2019-03-05T14:18:25.632Z,11.30
2019-03-05T14:20:56.510Z,11.30
2019-03-05T14:23:27.324Z,11.50
2019-03-05T14:25:58.352Z,11.90
2019-03-05T14:28:29.140Z,12.30
2019-03-05T14:31:00.028Z,12.90
2019-03-05T14:33:31.321Z,12.90
2019-03-05T14:36:02.458Z,12.90
2019-03-05T14:38:33.381Z,12.80
2019-03-05T14:41:04.574Z,12.50
2019-03-05T14:43:35.742Z,12.60
2019-03-05T14:46:07.019Z,13.00
2019-03-05T14:48:38.106Z,13.10
2019-03-05T14:51:09.039Z,13.00
2019-03-05T14:53:40.264Z,13.00
2019-03-05T14:56:11.075Z,12.90
2019-03-05T14:58:41.971Z,13.00
2019-03-05T15:01:14.319Z,13.10
2019-03-05T15:03:45.401Z,13.20
2019-03-05T15:06:16.130Z,13.10
2019-03-05T15:08:46.986Z,13.20
2019-03-05T15:11:19.945Z,13.30
2019-03-05T15:13:51.145Z,13.60
2019-03-05T15:16:22.605Z,13.80
2019-03-05T15:18:53.664Z,14.00
2019-03-05T15:21:25.036Z,14.00
2019-03-05T15:23:55.887Z,13.90
2019-03-05T15:26:26.655Z,13.90
2019-03-05T15:28:57.371Z,13.90
2019-03-05T15:31:28.448Z,13.90
2019-03-05T15:34:00.274Z,13.70
2019-03-05T15:36:31.166Z,13.60
2019-03-05T15:39:01.873Z,13.60
2019-03-05T15:41:34.384Z,13.50
2019-03-05T15:44:05.208Z,13.50
2019-03-05T15:46:36.193Z,13.40
2019-03-05T15:49:06.967Z,13.30
2019-03-05T15:51:38.128Z,13.20
2019-03-05T15:54:08.912Z,13.10
2019-03-05T15:56:39.625Z,13.00
2019-03-05T15:59:10.533Z,13.00
2019-03-05T16:01:41.527Z,13.00
2019-03-05T16:04:13.518Z,13.00
2019-03-05T16:06:44.347Z,12.90
2019-03-05T16:09:19.270Z,12.70
2019-03-05T16:11:51.597Z,12.60
2019-03-05T16:14:22.350Z,12.40
2019-03-05T16:16:53.154Z,12.20
2019-03-05T16:19:23.957Z,12.00
2019-03-05T16:21:54.688Z,11.70
2019-03-05T16:24:25.616Z,11.60
2019-03-05T16:26:57.886Z,11.50
2019-03-05T16:29:28.961Z,11.40
2019-03-05T16:32:18.845Z,11.30
2019-03-05T16:34:59.459Z,11.20
2019-03-05T16:37:49.175Z,11.10
2019-03-05T16:40:32.671Z,10.90
2019-03-05T16:43:28.653Z,10.80
2019-03-05T16:46:18.467Z,10.70
2019-03-05T16:49:17.480Z,10.60
2019-03-05T16:52:16.708Z,10.50
2019-03-05T16:54:52.964Z,10.40
2019-03-05T16:57:49.608Z,10.30
2019-03-05T17:00:49.015Z,10.20
2019-03-05T17:03:25.148Z,10.00
2019-03-05T17:06:09.403Z,9.90
2019-03-05T17:09:11.469Z,9.80
2019-03-05T17:11:57.873Z,9.80
2019-03-05T17:14:31.626Z,9.70
2019-03-05T17:17:02.726Z,9.60
2019-03-05T17:19:34.071Z,10.90
2019-03-05T17:22:05.725Z,13.10
2019-03-05T17:24:36.511Z,13.30
2019-03-05T17:27:07.860Z,12.70
2019-03-05T17:29:38.660Z,11.90
2019-03-05T17:32:10.480Z,11.40
2019-03-05T17:34:41.579Z,10.90
2019-03-05T17:37:12.516Z,10.50
2019-03-05T17:39:43.271Z,10.20
2019-03-05T17:42:14.257Z,10.00
2019-03-05T17:44:45.652Z,9.80
2019-03-05T17:47:16.938Z,9.70
2019-03-05T17:49:47.922Z,9.50
2019-03-05T17:52:18.907Z,9.40
2019-03-05T17:54:49.903Z,9.30
2019-03-05T17:57:21.154Z,9.30
2019-03-05T17:59:52.061Z,9.20
2019-03-05T18:02:23.094Z,9.10
2019-03-05T18:04:54.136Z,9.00
2019-03-05T18:07:25.097Z,9.00
2019-03-05T18:09:56.051Z,8.90
2019-03-05T18:12:27.323Z,8.90
2019-03-05T18:14:58.223Z,8.80
2019-03-05T18:17:29.259Z,8.80
2019-03-05T18:20:00.450Z,8.80
2019-03-05T18:22:32.878Z,8.80
2019-03-05T18:25:05.121Z,8.80
2019-03-05T18:27:37.007Z,8.70
2019-03-05T18:30:11.352Z,8.70
2019-03-05T18:32:43.836Z,8.70
2019-03-05T18:35:15.264Z,8.60
2019-03-05T18:37:46.196Z,8.60
2019-03-05T18:40:17.364Z,8.60
2019-03-05T18:42:48.164Z,8.60
2019-03-05T18:45:20.893Z,8.60
2019-03-05T18:47:51.839Z,8.60
2019-03-05T18:50:22.758Z,8.60
2019-03-05T18:52:53.985Z,8.50
2019-03-05T18:55:24.990Z,8.40
2019-03-05T18:57:55.777Z,8.50
2019-03-05T19:00:26.749Z,8.40
2019-03-05T19:02:57.569Z,8.40
2019-03-05T19:05:28.588Z,8.30
2019-03-05T19:07:59.429Z,8.20
2019-03-05T19:10:30.792Z,8.10
2019-03-05T19:13:01.610Z,8.10
2019-03-05T19:15:32.837Z,8.00
2019-03-05T19:18:05.553Z,8.00
2019-03-05T19:20:36.376Z,8.00
2019-03-05T19:23:07.353Z,7.90
2019-03-05T19:25:38.408Z,7.90
2019-03-05T19:28:11.350Z,7.90
2019-03-05T19:30:42.258Z,7.80
2019-03-05T19:33:13.129Z,7.90
2019-03-05T19:35:44.092Z,7.80
2019-03-05T19:38:15.237Z,7.70
2019-03-05T19:40:46.082Z,7.70
2019-03-05T19:43:17.032Z,7.70
2019-03-05T19:45:47.772Z,7.70
2019-03-05T19:48:18.584Z,7.70
2019-03-05T19:50:49.299Z,7.60
2019-03-05T19:53:20.313Z,7.60
2019-03-05T19:55:51.406Z,7.50
2019-03-05T19:58:22.096Z,7.50
2019-03-05T20:01:05.324Z,7.50
2019-03-05T20:03:36.134Z,7.50
2019-03-05T20:06:07.079Z,7.40
2019-03-05T20:08:40.076Z,7.40
2019-03-05T20:11:10.640Z,7.40
2019-03-05T20:13:41.438Z,7.30
2019-03-05T20:16:14.401Z,7.20
2019-03-05T20:18:45.123Z,7.20
2019-03-05T20:21:16.353Z,7.30
2019-03-05T20:23:47.068Z,7.20
2019-03-05T20:26:17.802Z,7.20
2019-03-05T20:28:49.563Z,7.10
2019-03-05T20:31:20.629Z,7.00
2019-03-05T20:33:51.378Z,7.00
2019-03-05T20:36:22.407Z,7.00
2019-03-05T20:38:53.356Z,7.00
2019-03-05T20:41:24.090Z,7.00
2019-03-05T20:43:55.254Z,7.00
2019-03-05T20:46:27.763Z,7.00
2019-03-05T20:48:58.693Z,7.00
2019-03-05T20:51:29.528Z,7.00
2019-03-05T20:54:00.706Z,7.00
2019-03-05T20:56:31.800Z,7.00
2019-03-05T20:59:02.932Z,7.00
2019-03-05T21:01:33.822Z,7.00
2019-03-05T21:04:04.716Z,7.10
2019-03-05T21:06:35.504Z,7.20
2019-03-05T21:09:19.026Z,7.20
2019-03-05T21:11:49.924Z,7.30
2019-03-05T21:14:20.972Z,7.20
2019-03-05T21:16:52.045Z,7.20
2019-03-05T21:19:24.077Z,7.10
2019-03-05T21:21:54.854Z,7.10
2019-03-05T21:24:25.835Z,7.10
2019-03-05T21:26:56.806Z,7.10
2019-03-05T21:29:27.865Z,7.00
2019-03-05T21:31:59.674Z,7.10
2019-03-05T21:34:30.652Z,7.10
2019-03-05T21:37:01.365Z,7.10
2019-03-05T21:39:33.146Z,7.10
2019-03-05T21:42:03.862Z,7.00
2019-03-05T21:44:34.617Z,7.10
2019-03-05T21:47:05.746Z,7.10
2019-03-05T21:49:36.470Z,7.10
2019-03-05T21:52:07.233Z,7.10
2019-03-05T21:54:38.254Z,7.10
2019-03-05T21:57:09.020Z,7.10
2019-03-05T21:59:40.156Z,7.10
2019-03-05T22:02:11.937Z,7.20
2019-03-05T22:05:33.587Z,7.20
2019-03-05T22:08:04.490Z,7.30
2019-03-05T22:10:35.550Z,7.30
2019-03-05T22:13:06.368Z,7.30
2019-03-05T22:15:38.060Z,7.40
2019-03-05T22:18:09.130Z,7.40
2019-03-05T22:20:39.864Z,7.50
2019-03-05T22:23:10.952Z,7.50
2019-03-05T22:25:41.674Z,7.50
2019-03-05T22:28:12.361Z,7.60
2019-03-05T22:30:43.489Z,7.50
2019-03-05T22:33:14.191Z,7.50
2019-03-05T22:35:45.233Z,7.50
2019-03-05T22:38:15.975Z,7.50
2019-03-05T22:40:47.282Z,7.50
2019-03-05T22:43:18.265Z,7.50
2019-03-05T22:45:48.985Z,7.60
2019-03-05T22:48:19.726Z,7.60
2019-03-05T22:50:50.501Z,7.60
2019-03-05T22:53:21.336Z,7.50
2019-03-05T22:55:52.173Z,7.60
2019-03-05T22:58:23.016Z,7.50
2019-03-05T23:01:12.481Z,7.50
2019-03-05T23:03:52.525Z,7.60
2019-03-05T23:06:23.472Z,7.60
2019-03-05T23:08:54.236Z,7.60
2019-03-05T23:11:25.603Z,7.50
2019-03-05T23:13:56.953Z,7.60
2019-03-05T23:16:27.989Z,7.60
2019-03-05T23:18:58.876Z,7.60
2019-03-05T23:21:30.458Z,7.60
2019-03-05T23:24:01.467Z,7.60
2019-03-05T23:26:32.502Z,7.60
2019-03-05T23:29:03.654Z,7.60
2019-03-05T23:31:34.830Z,7.60
2019-03-05T23:34:06.351Z,7.50
2019-03-05T23:36:37.145Z,7.60
2019-03-05T23:39:11.649Z,7.60
2019-03-05T23:41:43.952Z,7.50
2019-03-05T23:44:15.021Z,7.60
2019-03-05T23:46:47.251Z,7.60
2019-03-05T23:49:18.030Z,7.60
2019-03-05T23:51:48.754Z,7.70
2019-03-05T23:54:19.474Z,7.70
2019-03-05T23:56:51.281Z,7.70
2019-03-05T23:59:22.250Z,7.90
